Belmore, Ohio
Current Conditions -  °F | °C
As of 6:53 AM on Friday 24 Oct 2014 (Local Time) from KFDY Reporting Station
Clear Clear  
Wind Chill: 41°   Ceiling: Unl
Heat Index: 41°   Visibility: 8mi
Dew Point: 37°   Wind: 3mph
Humidity: 86%   Direction: 170°S
Pressure: 30.09"   Gusts: NA
Location:  41.15°N, 83.94°W
Report Text: KFDY 241053Z AUTO 17003KT 8SM CLR 05/03 A3009 RMK AO2 SLP190 T00500028
Loading
Personal Weather Stations






























Interactive Weather Map
Tropical Storm Tracking
New forecast layout! Learn more

10-Day Weather Forecast

Advertisements
Track Severe Weather on mobile